Time;durP1;ratioP1;P1;durP2;ratioP2;P2;SDS_P1;SDS_P2;PMS_P1;PMS_P2;Temp;Humidity;BMP_temperature;BMP_pressure;BME280_temperature;BME280_humidity;BME280_pressure;Samples;Min_cycle;Max_cycle;Signal;HPM_P1;HPM_P2
2023/09/08 00:02:05;;;;;;;0.00;0.00;;;;;;;27.96;46.30;101809.47;5072575;28;20029;-66
2023/09/08 00:04:30;;;;;;;0.00;0.00;;;;;;;27.95;47.11;101807.88;5071744;28;20033;-65
2023/09/08 00:06:56;;;;;;;0.00;0.00;;;;;;;28.12;46.46;101810.69;5071863;28;20032;-66
2023/09/08 00:09:21;;;;;;;0.00;0.00;;;;;;;28.04;46.38;101811.47;5071792;28;20756;-66
2023/09/08 00:11:46;;;;;;;0.00;0.00;;;;;;;27.99;46.17;101811.63;5071527;28;20067;-66
2023/09/08 00:14:12;;;;;;;0.00;0.00;;;;;;;27.79;46.91;101813.75;5072208;28;20032;-66
2023/09/08 00:16:39;;;;;;;0.00;0.00;;;;;;;27.81;46.50;101805.97;5087338;28;20043;-67
2023/09/08 00:19:04;;;;;;;0.00;0.00;;;;;;;27.71;47.30;101808.19;5091815;28;20051;-66
2023/09/08 00:21:29;;;;;;;0.00;0.00;;;;;;;27.64;46.95;101805.06;5092052;28;20039;-67
2023/09/08 00:23:56;;;;;;;0.00;0.00;;;;;;;27.64;46.91;101799.53;5088616;28;20035;-66
2023/09/08 00:26:21;;;;;;;0.00;0.00;;;;;;;27.55;47.21;101802.25;5071623;28;20070;-66
2023/09/08 00:28:48;;;;;;;0.00;0.00;;;;;;;27.48;47.27;101809.34;5063902;28;20032;-66
2023/09/08 00:31:13;;;;;;;0.00;0.00;;;;;;;27.52;47.41;101807.56;5071405;28;20067;-67
2023/09/08 00:33:39;;;;;;;0.00;0.00;;;;;;;27.57;47.29;101813.81;5071330;28;20032;-66
2023/09/08 00:36:04;;;;;;;0.00;0.00;;;;;;;27.50;46.95;101807.91;5070827;28;20032;-67
2023/09/08 00:38:30;;;;;;;0.00;0.00;;;;;;;27.35;48.01;101813.00;5071352;28;20116;-65
2023/09/08 00:40:55;;;;;;;0.00;0.00;;;;;;;27.30;48.94;101805.59;5071852;28;20092;-66
2023/09/08 00:43:21;;;;;;;0.00;0.00;;;;;;;27.50;47.46;101807.91;5071110;28;20044;-66
2023/09/08 00:45:46;;;;;;;0.00;0.00;;;;;;;27.36;48.17;101809.13;5091254;28;20074;-66
2023/09/08 00:48:12;;;;;;;0.03;0.00;;;;;;;27.18;48.58;101810.91;5091411;28;20036;-66
2023/09/08 00:50:38;;;;;;;0.00;0.00;;;;;;;27.21;47.96;101803.91;5085590;28;20235;-66
2023/09/08 00:53:05;;;;;;;0.00;0.00;;;;;;;27.27;47.79;101809.00;5071461;28;20145;-66
2023/09/08 00:55:30;;;;;;;0.00;0.00;;;;;;;27.24;47.76;101804.13;5070902;28;20119;-67
2023/09/08 00:57:57;;;;;;;0.00;0.00;;;;;;;27.39;47.47;101802.94;5070865;28;20166;-66
2023/09/08 01:00:22;;;;;;;0.00;0.00;;;;;;;27.19;47.77;101801.47;5053316;28;20060;-66
2023/09/08 01:02:47;;;;;;;0.00;0.00;;;;;;;27.03;48.66;101805.72;5051020;28;20052;-66
2023/09/08 01:05:14;;;;;;;0.00;0.00;;;;;;;27.10;48.07;101800.59;5051266;28;20033;-66
2023/09/08 01:07:40;;;;;;;0.00;0.00;;;;;;;27.15;47.97;101796.88;5050826;28;20091;-66
2023/09/08 01:10:06;;;;;;;0.00;0.00;;;;;;;27.03;48.65;101802.16;5050580;28;20039;-67
2023/09/08 01:12:35;;;;;;;0.00;0.00;;;;;;;26.97;48.94;101798.69;5063154;28;20033;-67
2023/09/08 01:15:02;;;;;;;0.00;0.00;;;;;;;27.01;48.35;101790.63;5070591;28;20419;-66
2023/09/08 01:17:27;;;;;;;0.00;0.00;;;;;;;26.83;49.11;101789.63;5070546;28;20024;-66
2023/09/08 01:19:57;;;;;;;0.00;0.00;;;;;;;27.03;48.46;101794.69;5069920;28;20075;-66
2023/09/08 01:22:50;;;;;;;0.00;0.00;;;;;;;26.88;48.87;101795.88;5050350;28;20407;-66
2023/09/08 01:25:21;;;;;;;0.00;0.00;;;;;;;27.04;48.61;101792.75;5050447;28;20814;-67
2023/09/08 01:27:50;;;;;;;0.00;0.00;;;;;;;27.13;49.14;101790.88;5050262;28;20047;-66
2023/09/08 01:30:16;;;;;;;0.00;0.00;;;;;;;27.01;49.54;101790.63;5050152;28;20056;-67
2023/09/08 01:32:43;;;;;;;0.00;0.00;;;;;;;27.09;48.51;101790.69;5050171;28;20114;-66
2023/09/08 01:35:09;;;;;;;0.00;0.00;;;;;;;27.01;49.05;101788.66;5051086;28;20048;-66
2023/09/08 01:37:35;;;;;;;0.00;0.00;;;;;;;26.90;48.27;101784.53;5050190;28;20048;-66
2023/09/08 01:40:02;;;;;;;0.00;0.00;;;;;;;26.98;48.07;101788.47;5050084;28;20029;-66
2023/09/08 01:42:28;;;;;;;0.00;0.00;;;;;;;26.89;48.74;101788.38;5049815;28;20132;-66
2023/09/08 01:44:53;;;;;;;0.00;0.00;;;;;;;26.87;48.56;101785.94;5055041;28;20032;-66
2023/09/08 01:47:18;;;;;;;0.00;0.00;;;;;;;26.77;48.82;101793.66;5069480;28;20020;-66
2023/09/08 01:49:44;;;;;;;0.00;0.00;;;;;;;26.73;49.03;101792.66;5070360;28;20040;-67
2023/09/08 01:52:09;;;;;;;0.00;0.00;;;;;;;26.70;49.15;101793.22;5069810;28;20516;-66
2023/09/08 01:54:34;;;;;;;0.00;0.00;;;;;;;26.71;48.86;101792.16;5070175;28;20496;-66
2023/09/08 01:57:00;;;;;;;0.00;0.00;;;;;;;26.65;49.00;101787.84;5069938;28;20037;-67
2023/09/08 01:59:25;;;;;;;0.00;0.00;;;;;;;26.66;48.27;101793.03;5060938;28;20044;-67
2023/09/08 02:01:51;;;;;;;0.00;0.00;;;;;;;26.55;48.94;101791.63;5050386;28;20453;-67
2023/09/08 02:04:16;;;;;;;0.00;0.00;;;;;;;26.68;48.56;101795.47;5049854;28;20037;-67
2023/09/08 02:06:41;;;;;;;0.00;0.00;;;;;;;26.63;48.97;101798.34;5049828;28;20040;-67
2023/09/08 02:09:10;;;;;;;0.00;0.00;;;;;;;26.59;48.39;101786.31;5065200;28;20365;-66
2023/09/08 02:11:35;;;;;;;0.00;0.00;;;;;;;26.64;48.75;101780.66;5061229;28;20045;-67
2023/09/08 02:14:00;;;;;;;0.00;0.00;;;;;;;26.46;48.98;101782.44;5050065;28;20033;-66
2023/09/08 02:16:26;;;;;;;0.00;0.00;;;;;;;26.56;48.72;101776.72;5049624;28;20040;-67
2023/09/08 02:18:51;;;;;;;0.00;0.00;;;;;;;26.56;48.79;101784.16;5049682;28;20032;-66
2023/09/08 02:21:17;;;;;;;0.00;0.00;;;;;;;26.52;49.44;101791.41;5049774;28;20485;-66
2023/09/08 02:23:42;;;;;;;0.00;0.00;;;;;;;26.54;48.96;101789.97;5049578;28;20040;-68
2023/09/08 02:26:07;;;;;;;0.00;0.00;;;;;;;26.54;48.82;101780.88;5050146;28;20033;-66
2023/09/08 02:28:33;;;;;;;0.00;0.00;;;;;;;26.58;48.98;101781.91;5041292;28;20067;-67
2023/09/08 02:30:58;;;;;;;0.00;0.00;;;;;;;26.35;49.54;101781.03;5049601;28;20041;-66
2023/09/08 02:33:24;;;;;;;0.00;0.00;;;;;;;26.45;49.23;101778.06;5049675;28;20037;-65
2023/09/08 02:35:49;;;;;;;0.00;0.00;;;;;;;26.51;49.38;101778.75;5049345;28;20036;-67
2023/09/08 02:38:14;;;;;;;0.00;0.00;;;;;;;26.51;48.67;101776.84;5049988;28;20029;-67
2023/09/08 02:40:40;;;;;;;0.00;0.00;;;;;;;26.61;48.94;101775.78;5049576;28;20374;-67
2023/09/08 02:43:05;;;;;;;0.00;0.00;;;;;;;26.66;48.67;101779.25;5049422;28;20055;-67
2023/09/08 02:45:30;;;;;;;0.10;0.10;;;;;;;26.58;48.69;101776.38;5061278;28;20496;-67
2023/09/08 02:47:56;;;;;;;0.00;0.00;;;;;;;26.53;49.24;101780.09;5069379;28;20025;-67
2023/09/08 02:50:21;;;;;;;0.10;0.10;;;;;;;26.59;49.00;101780.78;5050820;28;20060;-66
2023/09/08 02:52:47;;;;;;;0.00;0.00;;;;;;;26.66;47.86;101781.19;5070040;28;20043;-67
2023/09/08 02:55:12;;;;;;;0.00;0.00;;;;;;;26.61;47.99;101778.53;5069530;28;20076;-66
2023/09/08 02:57:39;;;;;;;0.03;0.03;;;;;;;26.63;48.29;101781.81;5069408;28;20044;-67
2023/09/08 03:00:06;;;;;;;0.00;0.00;;;;;;;26.50;48.31;101785.38;5072533;28;20577;-67
2023/09/08 03:02:32;;;;;;;0.00;0.00;;;;;;;26.42;49.09;101783.34;5073225;28;20123;-66
2023/09/08 03:04:57;;;;;;;0.00;0.00;;;;;;;26.47;48.74;101783.25;5073190;28;20032;-67
2023/09/08 03:07:22;;;;;;;0.00;0.00;;;;;;;26.44;48.29;101778.34;5073112;28;20062;-67
2023/09/08 03:09:48;;;;;;;0.00;0.00;;;;;;;26.39;48.33;101779.28;5072915;28;20033;-66
2023/09/08 03:12:13;;;;;;;0.03;0.03;;;;;;;26.26;49.11;101779.31;5059243;28;20033;-65
2023/09/08 03:14:39;;;;;;;0.10;0.10;;;;;;;26.34;48.85;101778.59;5052857;28;20040;-67
2023/09/08 03:17:04;;;;;;;0.10;0.10;;;;;;;26.22;48.78;101776.31;5053368;28;20028;-66
2023/09/08 03:19:30;;;;;;;0.05;0.05;;;;;;;26.22;49.26;101770.03;5052823;28;20068;-67
2023/09/08 03:21:55;;;;;;;0.00;0.00;;;;;;;26.14;50.39;101774.31;5052715;28;20044;-66
2023/09/08 03:24:21;;;;;;;0.10;0.10;;;;;;;26.21;50.04;101768.38;5052897;28;20025;-66
2023/09/08 03:26:46;;;;;;;0.03;0.03;;;;;;;26.46;48.78;101770.59;5052751;28;20033;-67
2023/09/08 03:29:11;;;;;;;0.00;0.00;;;;;;;26.49;48.70;101776.31;5052928;28;20029;-67
2023/09/08 03:31:37;;;;;;;0.03;0.03;;;;;;;26.35;49.10;101761.75;5052541;28;20118;-66
2023/09/08 03:34:02;;;;;;;0.05;0.05;;;;;;;26.37;48.69;101766.94;5052503;28;20034;-66
2023/09/08 03:36:28;;;;;;;0.00;0.00;;;;;;;26.18;49.71;101764.28;5052305;28;20542;-66
2023/09/08 03:38:53;;;;;;;0.03;0.03;;;;;;;26.29;48.93;101768.47;5052372;28;20029;-67
2023/09/08 03:41:18;;;;;;;0.00;0.00;;;;;;;26.23;49.60;101761.44;5052500;28;20485;-67
2023/09/08 03:43:44;;;;;;;0.00;0.00;;;;;;;26.13;49.20;101769.09;5056002;28;20032;-67
2023/09/08 03:46:09;;;;;;;0.00;0.00;;;;;;;26.12;49.62;101764.72;5072594;28;20032;-66
2023/09/08 03:48:34;;;;;;;0.08;0.08;;;;;;;26.13;49.69;101764.41;5072234;28;20392;-66
2023/09/08 03:51:00;;;;;;;0.00;0.00;;;;;;;26.13;49.84;101760.81;5080452;28;20048;-67
2023/09/08 03:53:25;;;;;;;0.00;0.00;;;;;;;26.26;48.94;101766.31;5092423;28;20027;-67
2023/09/08 03:55:51;;;;;;;0.00;0.00;;;;;;;26.21;49.27;101765.63;5092646;28;20066;-66
2023/09/08 03:58:16;;;;;;;0.00;0.00;;;;;;;26.14;49.11;101770.75;5092321;28;20036;-65
2023/09/08 04:00:42;;;;;;;0.10;0.10;;;;;;;26.19;48.89;101771.44;5079978;28;20499;-67
2023/09/08 04:03:08;;;;;;;0.10;0.10;;;;;;;26.04;49.18;101767.00;5069982;28;20067;-67
2023/09/08 04:05:33;;;;;;;0.00;0.00;;;;;;;26.12;49.32;101760.03;5071662;28;20032;-66
2023/09/08 04:07:59;;;;;;;0.00;0.00;;;;;;;26.08;49.01;101761.75;5071938;28;20464;-66
2023/09/08 04:10:24;;;;;;;0.00;0.00;;;;;;;26.01;49.63;101767.63;5061381;28;20049;-67
2023/09/08 04:12:49;;;;;;;0.10;0.10;;;;;;;26.13;49.15;101763.56;5069859;28;20041;-66
2023/09/08 04:15:15;;;;;;;0.00;0.00;;;;;;;26.13;48.93;101764.41;5071407;28;20037;-67
2023/09/08 04:17:40;;;;;;;0.00;0.00;;;;;;;26.05;49.46;101765.91;5070160;28;20032;-66
2023/09/08 04:20:07;;;;;;;0.00;0.00;;;;;;;25.94;49.78;101763.66;5072210;28;20362;-67
2023/09/08 04:22:33;;;;;;;0.00;0.00;;;;;;;26.00;49.34;101762.44;5071682;28;20025;-67
2023/09/08 04:24:59;;;;;;;0.10;0.10;;;;;;;25.69;50.32;101756.69;5071620;28;20527;-67
2023/09/08 04:27:24;;;;;;;0.00;0.00;;;;;;;25.83;50.00;101760.28;5071363;28;20037;-67
2023/09/08 04:29:49;;;;;;;0.00;0.00;;;;;;;25.80;49.81;101757.31;5071619;28;20044;-67
2023/09/08 04:32:15;;;;;;;0.00;0.00;;;;;;;25.80;49.93;101766.41;5071688;28;20032;-67
2023/09/08 04:34:41;;;;;;;0.00;0.00;;;;;;;25.85;50.17;101763.53;5071732;28;20040;-66
2023/09/08 04:37:07;;;;;;;0.10;0.10;;;;;;;25.85;49.68;101765.47;5071197;28;20037;-67
2023/09/08 04:39:33;;;;;;;0.08;0.08;;;;;;;25.87;50.40;101765.97;5071338;28;20029;-66
2023/09/08 04:41:59;;;;;;;0.00;0.00;;;;;;;26.05;50.15;101756.81;5070445;28;20035;-67
2023/09/08 04:44:24;;;;;;;0.00;0.00;;;;;;;26.14;49.85;101759.72;5080033;28;20032;-66
2023/09/08 04:46:51;;;;;;;0.00;0.00;;;;;;;25.97;50.13;101760.28;5089244;28;20396;-67
2023/09/08 04:49:17;;;;;;;0.00;0.00;;;;;;;25.94;50.11;101760.91;5070098;28;20055;-67
2023/09/08 04:51:43;;;;;;;0.00;0.00;;;;;;;25.96;50.33;101755.91;5055745;28;20041;-66
2023/09/08 04:54:08;;;;;;;0.10;0.10;;;;;;;26.13;50.03;101755.31;5050121;28;20059;-67
2023/09/08 04:56:34;;;;;;;0.00;0.00;;;;;;;26.10;49.88;101754.81;5052382;28;20040;-67
2023/09/08 04:59:00;;;;;;;0.10;0.10;;;;;;;26.26;49.93;101757.25;5050426;28;20029;-67
2023/09/08 05:01:27;;;;;;;0.00;0.00;;;;;;;26.22;49.46;101762.53;5050182;28;20445;-65
2023/09/08 05:03:52;;;;;;;0.05;0.05;;;;;;;26.12;50.29;101760.03;5049631;28;20527;-66
2023/09/08 05:06:17;;;;;;;0.00;0.00;;;;;;;26.22;49.64;101759.78;5049447;28;20029;-66
2023/09/08 05:08:43;;;;;;;0.00;0.00;;;;;;;26.28;49.85;101760.53;5049500;28;20037;-66
2023/09/08 05:11:09;;;;;;;0.00;0.00;;;;;;;26.25;49.59;101764.72;5049883;28;20047;-66
2023/09/08 05:13:35;;;;;;;0.00;0.00;;;;;;;26.07;50.04;101758.19;5049959;28;20033;-65
2023/09/08 05:16:10;;;;;;;0.00;0.00;;;;;;;26.04;50.45;101755.19;5049985;28;20044;-66
2023/09/08 05:18:36;;;;;;;0.00;0.00;;;;;;;26.40;49.46;101758.03;5049531;28;20570;-67
2023/09/08 05:21:02;;;;;;;0.00;0.00;;;;;;;26.51;48.88;101752.03;5049603;28;20037;-66
2023/09/08 05:23:27;;;;;;;0.00;0.00;;;;;;;26.56;48.66;101751.88;5049008;28;20033;-66
2023/09/08 05:25:53;;;;;;;0.00;0.00;;;;;;;26.45;49.10;101763.47;5050129;28;20028;-67
2023/09/08 05:28:19;;;;;;;0.00;0.00;;;;;;;26.33;49.61;101763.97;5049161;28;20501;-65
2023/09/08 05:30:44;;;;;;;0.00;0.00;;;;;;;26.44;49.51;101773.66;5053981;28;20037;-67
2023/09/08 05:33:09;;;;;;;0.00;0.00;;;;;;;26.30;49.41;101764.59;5035898;28;20037;-68
2023/09/08 05:35:36;;;;;;;0.00;0.00;;;;;;;26.61;48.78;101765.56;5052652;28;20036;-67
2023/09/08 05:38:03;;;;;;;0.00;0.00;;;;;;;26.45;49.17;101766.22;5059800;28;20538;-67
2023/09/08 05:40:28;;;;;;;0.10;0.10;;;;;;;26.43;49.09;101769.28;5045340;28;20033;-65
2023/09/08 05:42:54;;;;;;;0.10;0.10;;;;;;;26.55;48.39;101763.25;5043064;28;20083;-66
2023/09/08 05:45:20;;;;;;;0.00;0.00;;;;;;;26.43;48.87;101761.00;5049340;28;20037;-67
2023/09/08 05:47:45;;;;;;;0.00;0.00;;;;;;;26.50;49.03;101758.63;5030256;28;20033;-66
2023/09/08 05:50:11;;;;;;;0.00;0.00;;;;;;;26.48;49.33;101757.31;5054597;28;20025;-67
2023/09/08 05:52:37;;;;;;;0.00;0.00;;;;;;;26.32;49.24;101759.59;5069192;28;20102;-66
2023/09/08 05:55:03;;;;;;;0.10;0.10;;;;;;;26.36;49.62;101763.34;5090110;28;20448;-67
2023/09/08 05:57:28;;;;;;;0.00;0.00;;;;;;;26.51;49.25;101759.47;5089895;28;20128;-66
2023/09/08 05:59:53;;;;;;;0.00;0.00;;;;;;;26.57;49.22;101766.50;5089921;28;20087;-66
2023/09/08 06:02:19;;;;;;;0.00;0.00;;;;;;;26.31;50.50;101765.41;5079604;28;20388;-66
2023/09/08 06:04:44;;;;;;;0.00;0.00;;;;;;;26.58;49.17;101763.44;5069843;28;20024;-67
2023/09/08 06:07:09;;;;;;;0.00;0.00;;;;;;;26.64;49.18;101769.63;5050656;28;20377;-66
2023/09/08 06:09:35;;;;;;;0.00;0.00;;;;;;;26.72;49.46;101764.25;5069452;28;20037;-66
2023/09/08 06:12:01;;;;;;;0.00;0.00;;;;;;;26.65;49.47;101766.56;5069432;28;20048;-67
2023/09/08 06:14:27;;;;;;;0.00;0.00;;;;;;;26.81;49.02;101778.13;5069488;28;20047;-66
2023/09/08 06:16:52;;;;;;;0.00;0.00;;;;;;;26.89;48.36;101780.13;5070142;28;20575;-66
2023/09/08 06:19:17;;;;;;;0.05;0.05;;;;;;;26.89;48.84;101778.19;5069667;28;20082;-66
2023/09/08 06:21:43;;;;;;;0.00;0.00;;;;;;;27.04;48.47;101787.22;5069626;28;20039;-66
2023/09/08 06:24:08;;;;;;;0.00;0.00;;;;;;;26.87;48.74;101785.13;5069587;28;20501;-67
2023/09/08 06:26:34;;;;;;;0.00;0.00;;;;;;;26.90;48.65;101782.59;5069407;28;20025;-66
2023/09/08 06:28:59;;;;;;;0.00;0.00;;;;;;;27.22;47.60;101783.47;5068346;28;20032;-67
2023/09/08 06:31:24;;;;;;;0.00;0.00;;;;;;;27.20;48.24;101791.25;5069494;28;20044;-66
2023/09/08 06:33:51;;;;;;;0.00;0.00;;;;;;;27.20;48.05;101786.56;5070744;28;20036;-66
2023/09/08 06:36:18;;;;;;;0.00;0.00;;;;;;;27.34;48.20;101792.84;5073286;28;20144;-68
2023/09/08 06:38:43;;;;;;;0.00;0.00;;;;;;;27.39;47.89;101784.44;5073566;28;20040;-68
2023/09/08 06:41:12;;;;;;;0.00;0.00;;;;;;;27.49;47.73;101777.84;5073997;28;20028;-68
2023/09/08 06:43:38;;;;;;;0.00;0.00;;;;;;;27.37;48.00;101783.94;5070612;28;20033;-67
2023/09/08 06:46:04;;;;;;;0.00;0.00;;;;;;;27.63;47.80;101782.16;5069883;28;20055;-67
2023/09/08 06:48:29;;;;;;;0.00;0.00;;;;;;;27.65;47.66;101784.59;5065009;28;20028;-67
2023/09/08 06:50:56;;;;;;;0.00;0.00;;;;;;;27.81;46.97;101788.59;5072687;28;20127;-65
2023/09/08 06:53:24;;;;;;;0.00;0.00;;;;;;;27.92;47.46;101787.19;5072870;28;20016;-66
2023/09/08 06:55:50;;;;;;;0.00;0.00;;;;;;;28.10;46.72;101783.38;5073790;28;20462;-66
2023/09/08 06:58:15;;;;;;;0.00;0.00;;;;;;;28.15;46.24;101793.47;5066872;28;20033;-65
2023/09/08 07:00:41;;;;;;;0.00;0.00;;;;;;;27.94;47.09;101795.13;5073063;28;20048;-66
2023/09/08 07:03:08;;;;;;;0.00;0.00;;;;;;;27.98;46.96;101791.47;5073069;28;20650;-65
2023/09/08 07:05:38;;;;;;;0.00;0.00;;;;;;;27.79;47.54;101794.41;5072855;28;20048;-66
2023/09/08 07:08:03;;;;;;;0.00;0.00;;;;;;;28.37;46.25;101790.59;5073222;28;20017;-67
2023/09/08 07:10:29;;;;;;;0.00;0.00;;;;;;;28.22;47.00;101796.59;5072897;28;20032;-66
2023/09/08 07:12:54;;;;;;;0.00;0.00;;;;;;;28.50;46.04;101792.44;5072923;28;20032;-67
2023/09/08 07:15:20;;;;;;;0.00;0.00;;;;;;;28.47;46.51;101796.66;5072677;28;20039;-67
2023/09/08 07:17:45;;;;;;;0.00;0.00;;;;;;;28.34;46.53;101794.81;5072816;28;20036;-66
2023/09/08 07:20:10;;;;;;;0.00;0.00;;;;;;;28.63;45.74;101789.56;5073213;28;20013;-66
2023/09/08 07:22:36;;;;;;;0.00;0.00;;;;;;;28.67;45.85;101792.50;5072481;28;20037;-66
2023/09/08 07:25:01;;;;;;;0.00;0.00;;;;;;;28.86;45.41;101781.09;5072706;28;20044;-67
2023/09/08 07:27:26;;;;;;;0.00;0.00;;;;;;;28.92;45.26;101793.66;5067814;28;20543;-66
2023/09/08 07:29:52;;;;;;;0.00;0.00;;;;;;;29.17;45.11;101782.59;5067263;28;20036;-66
2023/09/08 07:32:18;;;;;;;0.00;0.00;;;;;;;29.06;45.74;101792.34;5072501;28;20407;-65
2023/09/08 07:34:43;;;;;;;0.00;0.00;;;;;;;29.28;44.59;101786.69;5073031;28;20062;-66
2023/09/08 07:37:09;;;;;;;0.00;0.00;;;;;;;29.37;44.93;101792.19;5072360;28;20040;-66
2023/09/08 07:39:35;;;;;;;0.00;0.00;;;;;;;29.43;45.04;101793.66;5072404;28;20036;-65
2023/09/08 07:42:01;;;;;;;0.00;0.00;;;;;;;29.63;44.64;101794.91;5072228;28;20078;-65
2023/09/08 07:44:26;;;;;;;0.00;0.00;;;;;;;29.59;44.55;101796.69;5065665;28;20063;-66
2023/09/08 07:46:52;;;;;;;0.00;0.00;;;;;;;29.80;44.44;101792.13;5089480;28;20042;-66
2023/09/08 07:49:21;;;;;;;0.00;0.00;;;;;;;29.80;44.21;101794.91;5092662;28;20476;-67
2023/09/08 07:51:46;;;;;;;0.00;0.00;;;;;;;29.70;44.50;101796.03;5081198;28;20048;-66
2023/09/08 07:54:12;;;;;;;0.00;0.00;;;;;;;29.79;44.76;101791.31;5066561;28;20071;-66
2023/09/08 07:56:38;;;;;;;0.00;0.00;;;;;;;30.03;43.99;101788.78;5052019;28;20146;-65
2023/09/08 07:59:03;;;;;;;0.00;0.00;;;;;;;30.29;43.73;101792.25;5052337;28;20054;-66
2023/09/08 08:01:29;;;;;;;0.00;0.00;;;;;;;30.31;42.95;101795.50;5052017;28;20041;-67
2023/09/08 08:03:54;;;;;;;0.00;0.00;;;;;;;30.27;43.83;101793.69;5052029;28;20025;-66
2023/09/08 08:06:19;;;;;;;0.00;0.00;;;;;;;29.93;44.50;101794.69;5051799;28;20028;-66
2023/09/08 08:08:45;;;;;;;0.00;0.00;;;;;;;30.46;43.24;101796.06;5052011;28;20040;-66
2023/09/08 08:11:15;;;;;;;0.00;0.00;;;;;;;30.79;43.07;101797.00;5052035;28;20029;-66
2023/09/08 08:13:40;;;;;;;0.00;0.00;;;;;;;30.58;43.16;101794.22;5051762;28;20052;-66
2023/09/08 08:16:06;;;;;;;0.00;0.00;;;;;;;30.65;42.32;101797.25;5051482;28;20033;-66
2023/09/08 08:18:31;;;;;;;0.00;0.00;;;;;;;30.39;42.98;101796.59;5051430;28;20493;-66
2023/09/08 08:20:57;;;;;;;0.00;0.00;;;;;;;30.54;42.71;101803.53;5051496;28;20343;-66
2023/09/08 08:23:22;;;;;;;0.00;0.00;;;;;;;30.72;42.08;101800.28;5051382;28;20048;-65
2023/09/08 08:25:49;;;;;;;0.00;0.00;;;;;;;30.91;41.78;101797.09;5051965;28;20025;-66
2023/09/08 08:28:14;;;;;;;0.00;0.00;;;;;;;31.01;41.60;101800.28;5051330;28;20080;-67
2023/09/08 08:30:40;;;;;;;0.00;0.00;;;;;;;31.46;40.67;101799.56;5051259;28;20073;-66
2023/09/08 08:33:05;;;;;;;0.00;0.00;;;;;;;31.15;41.01;101798.00;5051374;28;20025;-67
2023/09/08 08:35:31;;;;;;;0.00;0.00;;;;;;;31.34;40.98;101789.19;5033299;28;20021;-66
2023/09/08 08:37:59;;;;;;;0.00;0.00;;;;;;;30.49;43.20;101784.28;5051533;28;20032;-66
2023/09/08 08:40:26;;;;;;;0.00;0.00;;;;;;;30.85;42.28;101795.66;5032887;28;20037;-66
2023/09/08 08:42:55;;;;;;;0.00;0.00;;;;;;;31.87;40.83;101799.41;5066422;28;20068;-67
2023/09/08 08:45:26;;;;;;;0.00;0.00;;;;;;;31.12;41.15;101792.34;5070852;28;20039;-66
2023/09/08 08:47:52;;;;;;;0.00;0.00;;;;;;;31.91;40.34;101794.78;5071133;28;20044;-67
2023/09/08 08:50:18;;;;;;;0.00;0.00;;;;;;;31.86;40.43;101797.81;5066701;28;20029;-66
2023/09/08 08:52:44;;;;;;;0.10;0.00;;;;;;;32.17;40.04;101800.06;5069457;28;20170;-67
2023/09/08 08:55:10;;;;;;;0.00;0.00;;;;;;;32.55;39.53;101790.19;5070888;28;20123;-67
2023/09/08 08:57:39;;;;;;;0.00;0.00;;;;;;;32.60;40.08;101792.75;5070333;28;20060;-67
2023/09/08 09:00:11;;;;;;;0.00;0.00;;;;;;;32.48;39.70;101794.72;5071151;28;20093;-67
2023/09/08 09:02:39;;;;;;;0.00;0.00;;;;;;;32.71;38.63;101793.06;5070828;28;20044;-66
2023/09/08 09:05:05;;;;;;;0.00;0.00;;;;;;;32.47;39.22;101793.91;5071158;28;20028;-66
2023/09/08 09:07:32;;;;;;;0.00;0.00;;;;;;;33.01;38.42;101783.25;5070346;28;20037;-66
2023/09/08 09:09:57;;;;;;;0.00;0.00;;;;;;;33.03;38.16;101788.47;5035588;28;20115;-66
2023/09/08 09:12:24;;;;;;;0.00;0.00;;;;;;;32.71;39.28;101790.28;5070574;28;20037;-67
2023/09/08 09:14:53;;;;;;;0.00;0.00;;;;;;;32.16;39.31;101781.75;5070462;28;20021;-68
2023/09/08 09:17:18;;;;;;;0.00;0.00;;;;;;;32.69;38.36;101782.28;5070355;28;20028;-67
2023/09/08 09:19:44;;;;;;;0.00;0.00;;;;;;;32.77;38.24;101795.25;5070897;28;20112;-66
2023/09/08 09:22:09;;;;;;;0.00;0.00;;;;;;;33.08;37.75;101783.47;5070244;28;20143;-68
2023/09/08 09:24:40;;;;;;;0.00;0.00;;;;;;;32.58;38.27;101785.91;5070273;28;20528;-67
2023/09/08 09:27:07;;;;;;;0.00;0.00;;;;;;;33.48;37.25;101789.00;5069995;28;20154;-66
2023/09/08 09:29:33;;;;;;;0.00;0.00;;;;;;;34.02;37.25;101773.34;5070369;28;20033;-66
2023/09/08 09:32:07;;;;;;;0.00;0.00;;;;;;;34.23;37.04;101786.97;5070472;28;20059;-66
2023/09/08 09:34:34;;;;;;;0.00;0.00;;;;;;;34.05;36.50;101785.72;5070174;28;20154;-66
2023/09/08 09:36:59;;;;;;;0.00;0.00;;;;;;;34.17;37.01;101789.25;5069864;28;20127;-65
2023/09/08 09:39:26;;;;;;;0.00;0.00;;;;;;;33.99;37.54;101785.19;5088067;28;20122;-67
2023/09/08 09:41:55;;;;;;;0.00;0.00;;;;;;;34.32;37.03;101785.59;5090421;28;20365;-67
2023/09/08 09:44:21;;;;;;;0.00;0.00;;;;;;;34.68;35.76;101778.88;5081633;28;20461;-66
2023/09/08 09:46:47;;;;;;;0.00;0.00;;;;;;;34.91;36.07;101774.19;5066295;28;20039;-66
2023/09/08 09:49:19;;;;;;;0.00;0.00;;;;;;;34.87;35.32;101784.47;5069943;28;20028;-66
2023/09/08 09:51:50;;;;;;;0.00;0.00;;;;;;;33.99;37.49;101779.63;5069524;28;20551;-67
2023/09/08 09:54:16;;;;;;;0.00;0.00;;;;;;;35.14;35.89;101785.47;5070031;28;20056;-66
2023/09/08 09:56:42;;;;;;;0.00;0.00;;;;;;;34.72;35.99;101779.78;5069863;28;20496;-66
2023/09/08 09:59:09;;;;;;;0.00;0.00;;;;;;;34.32;36.09;101787.59;5070186;28;20496;-66
2023/09/08 10:01:36;;;;;;;0.00;0.00;;;;;;;35.00;35.30;101785.19;5069721;28;20093;-67
2023/09/08 10:04:03;;;;;;;0.00;0.00;;;;;;;35.28;35.16;101783.75;5069736;28;20051;-66
2023/09/08 10:06:31;;;;;;;0.00;0.00;;;;;;;35.39;34.87;101786.75;5069675;28;20689;-66
2023/09/08 10:09:04;;;;;;;0.00;0.00;;;;;;;35.68;34.43;101772.16;5069193;28;20108;-65
2023/09/08 10:11:34;;;;;;;0.00;0.00;;;;;;;35.37;35.75;101777.94;5084112;28;20024;-67
2023/09/08 10:14:00;;;;;;;0.00;0.00;;;;;;;35.16;35.28;101769.16;5070415;28;20506;-65
2023/09/08 10:16:30;;;;;;;0.00;0.00;;;;;;;35.66;34.60;101770.91;5069751;28;20037;-66
2023/09/08 10:18:59;;;;;;;0.00;0.00;;;;;;;35.94;34.17;101774.22;5069608;28;20094;-65
2023/09/08 10:21:26;;;;;;;0.00;0.00;;;;;;;35.94;34.23;101774.22;5069808;28;20373;-67
2023/09/08 10:24:01;;;;;;;0.00;0.00;;;;;;;35.62;33.79;101772.84;5069561;28;20039;-65
2023/09/08 10:26:29;;;;;;;0.00;0.00;;;;;;;35.58;34.69;101769.19;5069662;28;20025;-66
2023/09/08 10:28:56;;;;;;;0.00;0.00;;;;;;;35.68;34.58;101760.16;5069864;28;20624;-66
2023/09/08 10:31:27;;;;;;;0.00;0.00;;;;;;;35.05;34.94;101768.91;5069265;28;20041;-66
2023/09/08 10:33:56;;;;;;;0.00;0.00;;;;;;;35.91;33.78;101766.56;5069269;28;20025;-65
2023/09/08 10:36:24;;;;;;;0.00;0.00;;;;;;;35.73;33.80;101763.47;5069693;28;20376;-67
2023/09/08 10:38:51;;;;;;;0.00;0.00;;;;;;;36.04;33.49;101768.00;5069497;28;20032;-67
2023/09/08 10:41:17;;;;;;;0.00;0.00;;;;;;;36.27;33.26;101762.34;5069452;28;20058;-66
2023/09/08 10:44:07;;;;;;;0.00;0.00;;;;;;;36.87;31.80;101764.06;5069591;28;20139;-66
2023/09/08 10:46:34;;;;;;;0.00;0.00;;;;;;;36.58;31.80;101762.03;5001096;28;20537;-66
2023/09/08 10:49:07;;;;;;;0.00;0.00;;;;;;;36.68;31.15;101756.56;5007006;28;20038;-65
2023/09/08 10:51:34;;;;;;;0.00;0.00;;;;;;;36.09;32.30;101762.88;4992728;28;20065;-65
2023/09/08 10:54:00;;;;;;;0.00;0.00;;;;;;;36.82;31.41;101761.53;5006441;28;20049;-65
2023/09/08 10:56:47;;;;;;;0.00;0.00;;;;;;;36.41;31.25;101763.41;5026741;28;20103;-66
2023/09/08 10:59:13;;;;;;;0.00;0.00;;;;;;;36.53;30.93;101760.38;5026870;28;20084;-65
2023/09/08 11:01:38;;;;;;;0.00;0.00;;;;;;;36.62;30.84;101769.28;5026278;28;20480;-66
2023/09/08 11:04:08;;;;;;;0.00;0.00;;;;;;;37.03;30.60;101766.66;5026428;28;20049;-66
2023/09/08 11:06:34;;;;;;;0.00;0.00;;;;;;;37.07;30.61;101767.50;5026493;28;20068;-66
2023/09/08 11:09:07;;;;;;;0.00;0.00;;;;;;;37.65;30.30;101762.91;5026410;28;20038;-66
2023/09/08 11:11:33;;;;;;;0.00;0.00;;;;;;;37.46;30.75;101772.38;5026441;28;20045;-65
2023/09/08 11:13:59;;;;;;;0.00;0.00;;;;;;;37.56;29.46;101771.66;5026919;28;20026;-66
2023/09/08 11:16:29;;;;;;;0.00;0.00;;;;;;;37.51;30.39;101760.78;5025998;28;20579;-65
2023/09/08 11:18:54;;;;;;;0.00;0.00;;;;;;;37.91;29.20;101762.78;5026629;28;20892;-67
2023/09/08 11:21:20;;;;;;;0.00;0.00;;;;;;;38.18;28.88;101760.56;5029913;28;20046;-66